Aérodrome :
LOGIN :

S'inscrire | Disclaimer

   EN    FR    IT 

 










Légende :    VFR   VFR Marginal   IFR   IFR Intensif   IFR Très Intensif
Visi : 
Plafond : 
>= 8 km
>= 3000ft
5 à 8 km
1000 à 3000 ft
1500m à 5 km
500 à 1000 ft
800 à 1500m
200 à 500 ft
< 800m
< 200 ft
Symboles :   Orages  Brouillard  Fortes neiges  Fortes précipitations  Vent > 20 kt
SIGMETs :   Divers  Orages  Givrage  Turbulence  Onde Orograph.  Cendres Volcan.







- Altitude de l'aérodrome : 74 ft
- Code IATA : LRH
- Voir les cartes d'approche


LFBH - La Rochelle Ile de Ré

DERNIER METAR :
  • 221400Z AUTO 30013KT 9999 FEW037 09/04 Q1008 TEMPO 30015G25KT 3000 SHRA BKN020TCU

METARs EXPIRÉS :
  • 221330Z AUTO 32011KT 9999 FEW038 10/04 Q1008 TEMPO 30015G25KT 3000 SHRA BKN020TCU
  • 221300Z AUTO 32012KT 9999 FEW035 SCT150 09/05 Q1008 NOSIG
  • 221230Z AUTO 32011KT CAVOK 09/05 Q1009 NOSIG
  • 221200Z AUTO 32013KT CAVOK 09/05 Q1009 NOSIG
  • 221130Z AUTO 32012KT CAVOK 08/05 Q1009 NOSIG
  • 221100Z AUTO 33014KT CAVOK 08/04 Q1009 NOSIG

TAF TAF LFBH
Valide du 22 à 12h jusqu'au 23 à 12h UTC


221100Z 2212/2312 32012KT 9999 SCT020
PROB40
TEMPO 2215/2306 30015G25KT 3000 SHRA BKN020TCU
ATIS : +33 5 46 00 13 92
Pas de NOTAMs connus pour ce terrain.



MET'MAP, la Météo Aéronautique d'un coup d'oeil ! - Copyright ORBIFLY Décembre 2007 - Disclaimer

ORBIFLY MET'MAP TEAM :

Programmation & Développement : Alexandra Zaïnal
Conception & Développement : Baudouin d'Aumeries
Co-Programmation & Développement : Marc-Olivier Méhu
Soutien technique & logistique : Manuel Goepfert

Contact : metmap@orbifly.com




SOURCES & CREDITS :

   NOAA